createdAt,value
2018-02-12T00:02:13.903Z,99210.90
2018-02-12T00:04:43.901Z,99208.66
2018-02-12T00:07:13.119Z,99203.95
2018-02-12T00:09:43.089Z,99207.17
2018-02-12T00:12:12.299Z,99205.02
2018-02-12T00:14:42.335Z,99205.12
2018-02-12T00:17:11.720Z,99214.45
2018-02-12T00:19:40.938Z,99217.33
2018-02-12T00:22:14.846Z,99221.50
2018-02-12T00:24:44.843Z,99221.91
2018-02-12T00:27:14.096Z,99219.44
2018-02-12T00:29:43.311Z,99229.53
2018-02-12T00:32:12.555Z,99227.25
2018-02-12T00:34:42.574Z,99227.23
2018-02-12T00:37:12.573Z,99231.25
2018-02-12T00:39:41.802Z,99237.92
2018-02-12T00:42:11.777Z,99237.63
2018-02-12T00:44:40.991Z,99245.27
2018-02-12T00:47:10.245Z,99240.63
2018-02-12T00:49:39.451Z,99254.16
2018-02-12T00:52:08.675Z,99250.73
2018-02-12T00:54:37.887Z,99242.62
2018-02-12T00:57:07.100Z,99257.56
2018-02-12T00:59:37.102Z,99257.56
2018-02-12T01:02:07.062Z,99266.34
2018-02-12T01:04:36.274Z,99262.88
2018-02-12T01:07:05.633Z,99266.20
2018-02-12T01:09:34.870Z,99266.84
2018-02-12T01:12:04.076Z,99269.03
2018-02-12T01:14:33.300Z,99267.20
2018-02-12T01:17:03.999Z,99272.91
2018-02-12T01:19:33.286Z,99268.96
2018-02-12T01:22:02.670Z,99282.27
2018-02-12T01:24:31.883Z,99286.67
2018-02-12T01:27:01.116Z,99304.34
2018-02-12T01:29:30.399Z,99296.11
2018-02-12T01:31:59.679Z,99289.34
2018-02-12T01:34:29.085Z,99295.70
2018-02-12T01:36:58.346Z,99280.88
2018-02-12T01:39:28.338Z,99279.34
2018-02-12T01:41:57.583Z,99279.78
2018-02-12T01:44:26.807Z,99285.74
2018-02-12T01:46:56.127Z,99293.77
2018-02-12T01:49:25.370Z,99298.64
2018-02-12T01:51:54.617Z,99297.90
2018-02-12T01:54:23.821Z,99297.59
2018-02-12T01:56:53.078Z,99297.30
2018-02-12T01:59:22.306Z,99309.59
2018-02-12T02:01:51.522Z,99303.75
2018-02-12T02:04:20.723Z,99305.92
2018-02-12T02:06:50.745Z,99306.81
2018-02-12T02:09:19.961Z,99310.98
2018-02-12T02:11:49.938Z,99309.89
2018-02-12T02:14:19.196Z,99308.84
2018-02-12T02:16:48.452Z,99313.67
2018-02-12T02:19:18.591Z,99312.91
2018-02-12T02:21:48.573Z,99316.48
2018-02-12T02:24:17.804Z,99323.09
2018-02-12T02:26:47.803Z,99321.59
2018-02-12T02:29:17.043Z,99324.97
2018-02-12T02:31:46.258Z,99325.03
2018-02-12T02:34:16.250Z,99335.59
2018-02-12T02:36:46.221Z,99332.81
2018-02-12T02:39:15.451Z,99333.51
2018-02-12T02:41:45.457Z,99332.91
2018-02-12T02:44:15.443Z,99340.94
2018-02-12T02:46:44.703Z,99340.20
2018-02-12T02:49:13.924Z,99339.66
2018-02-12T02:51:43.263Z,99334.44
2018-02-12T02:54:13.238Z,99342.62
2018-02-12T02:56:42.479Z,99338.72
2018-02-12T02:59:12.466Z,99350.08
2018-02-12T03:01:42.453Z,99346.34
2018-02-12T03:04:11.727Z,99346.11
2018-02-12T03:06:41.726Z,99348.34
2018-02-12T03:09:10.930Z,99351.22
2018-02-12T03:11:41.032Z,99355.24
2018-02-12T03:14:11.058Z,99348.39
2018-02-12T03:16:41.059Z,99356.17
2018-02-12T03:19:11.042Z,99354.29
2018-02-12T03:21:40.529Z,99351.63
2018-02-12T03:24:09.737Z,99364.02
2018-02-12T03:26:38.981Z,99363.77
2018-02-12T03:29:08.943Z,99372.25
2018-02-12T03:31:38.163Z,99373.34
2018-02-12T03:34:07.407Z,99375.14
2018-02-12T03:36:37.403Z,99378.47
2018-02-12T03:39:06.644Z,99374.64
2018-02-12T03:41:35.892Z,99379.30
2018-02-12T03:44:05.104Z,99380.84
2018-02-12T03:46:35.097Z,99382.77
2018-02-12T03:49:04.330Z,99391.56
2018-02-12T03:51:34.324Z,99387.80
2018-02-12T03:54:03.742Z,99395.23
2018-02-12T03:56:33.713Z,99393.54
2018-02-12T03:59:02.988Z,99399.39
2018-02-12T04:01:32.262Z,99402.58
2018-02-12T04:04:01.536Z,99401.13
2018-02-12T04:06:30.767Z,99402.73
2018-02-12T04:09:00.176Z,99412.64
2018-02-12T04:11:31.196Z,99409.38
2018-02-12T04:14:00.441Z,99413.04
2018-02-12T04:16:29.671Z,99423.57
2018-02-12T04:18:58.890Z,99424.95
2018-02-12T04:21:28.257Z,99421.13
2018-02-12T04:23:57.483Z,99430.80
2018-02-12T04:26:27.463Z,99436.55
2018-02-12T04:28:56.744Z,99439.16
2018-02-12T04:31:26.204Z,99433.64
2018-02-12T04:33:55.436Z,99440.23
2018-02-12T04:36:26.462Z,99441.84
2018-02-12T04:38:59.402Z,99440.50
2018-02-12T04:41:28.641Z,99443.06
2018-02-12T04:43:57.906Z,99444.00
2018-02-12T04:46:27.840Z,99456.71
2018-02-12T04:48:57.860Z,99461.68
2018-02-12T04:51:27.915Z,99457.16
2018-02-12T04:53:57.122Z,99453.94
2018-02-12T04:56:26.330Z,99455.31
2018-02-12T04:58:55.551Z,99459.87
2018-02-12T05:01:25.549Z,99456.66
2018-02-12T05:03:54.856Z,99459.69
2018-02-12T05:06:24.086Z,99458.06
2018-02-12T05:08:54.067Z,99463.61
2018-02-12T05:11:24.798Z,99460.81
2018-02-12T05:13:54.027Z,99471.55
2018-02-12T05:16:24.079Z,99480.38
2018-02-12T05:18:53.331Z,99470.45
2018-02-12T05:21:22.802Z,99481.58
2018-02-12T05:23:52.071Z,99484.65
2018-02-12T05:26:21.338Z,99491.48
2018-02-12T05:28:50.610Z,99499.63
2018-02-12T05:31:19.854Z,99497.31
2018-02-12T05:33:49.856Z,99494.38
2018-02-12T05:36:19.159Z,99499.84
2018-02-12T05:38:49.162Z,99501.98
2018-02-12T05:41:19.241Z,99501.69
2018-02-12T05:43:48.533Z,99504.58
2018-02-12T05:46:17.755Z,99512.91
2018-02-12T05:48:46.973Z,99512.27
2018-02-12T05:51:16.425Z,99514.33
2018-02-12T05:53:45.646Z,99520.37
2018-02-12T05:56:14.876Z,99514.91
2018-02-12T05:58:44.189Z,99516.41
2018-02-12T06:01:13.437Z,99524.98
2018-02-12T06:03:42.649Z,99522.59
2018-02-12T06:06:13.383Z,99530.34
2018-02-12T06:08:42.670Z,99538.02
2018-02-12T06:11:11.876Z,99545.16
2018-02-12T06:13:41.312Z,99545.80
2018-02-12T06:16:11.300Z,99542.73
2018-02-12T06:18:40.625Z,99546.20
2018-02-12T06:21:10.687Z,99561.73
2018-02-12T06:23:39.916Z,99558.48
2018-02-12T06:26:09.171Z,99562.72
2018-02-12T06:28:38.631Z,99561.23
2018-02-12T06:31:07.890Z,99571.05
2018-02-12T06:33:37.152Z,99575.86
2018-02-12T06:36:06.395Z,99584.15
2018-02-12T06:38:35.651Z,99588.96
2018-02-12T06:41:05.622Z,99599.53
2018-02-12T06:43:34.920Z,99599.50
2018-02-12T06:46:04.131Z,99596.53
2018-02-12T06:48:33.325Z,99601.78
2018-02-12T06:51:02.584Z,99602.22
2018-02-12T06:53:31.795Z,99607.91
2018-02-12T06:56:01.749Z,99604.75
2018-02-12T06:58:31.038Z,99609.59
2018-02-12T07:01:00.271Z,99618.38
2018-02-12T07:03:29.483Z,99625.72
2018-02-12T07:05:58.851Z,99622.53
2018-02-12T07:08:28.066Z,99624.38
2018-02-12T07:10:57.363Z,99631.22
2018-02-12T07:13:26.570Z,99634.45
2018-02-12T07:15:55.919Z,99643.14
2018-02-12T07:18:25.134Z,99654.91
2018-02-12T07:20:54.391Z,99648.93
2018-02-12T07:23:23.629Z,99656.59
2018-02-12T07:25:53.587Z,99656.83
2018-02-12T07:28:22.802Z,99659.94
2018-02-12T07:30:51.994Z,99657.22
2018-02-12T07:33:21.206Z,99652.52
2018-02-12T07:35:50.421Z,99661.90
2018-02-12T07:38:19.641Z,99661.07
2018-02-12T07:40:49.640Z,99667.08
2018-02-12T07:43:18.919Z,99669.77
2018-02-12T07:45:48.530Z,99660.86
2018-02-12T07:48:17.960Z,99669.59
2018-02-12T07:50:47.118Z,99669.81
2018-02-12T07:53:16.414Z,99673.58
2018-02-12T07:55:45.993Z,99677.02
2018-02-12T07:58:15.344Z,99689.02
2018-02-12T08:00:45.591Z,99689.16
2018-02-12T08:03:15.690Z,99694.35
2018-02-12T08:05:45.010Z,99699.34
2018-02-12T08:08:14.354Z,99710.33
2018-02-12T08:10:43.636Z,99714.75
2018-02-12T08:13:13.604Z,99717.86
2018-02-12T08:15:42.957Z,99727.89
2018-02-12T08:18:12.170Z,99739.16
2018-02-12T08:20:41.445Z,99746.61
2018-02-12T08:23:11.438Z,99749.22
2018-02-12T08:25:41.448Z,99741.12
2018-02-12T08:28:10.886Z,99753.24
2018-02-12T08:30:40.088Z,99758.86
2018-02-12T08:33:09.357Z,99747.46
2018-02-12T08:35:39.350Z,99736.58
2018-02-12T08:38:08.719Z,99753.27
2018-02-12T08:40:37.900Z,99757.05
2018-02-12T08:43:07.216Z,99768.14
2018-02-12T08:45:36.410Z,99769.30
2018-02-12T08:48:05.752Z,99768.45
2018-02-12T08:50:35.704Z,99775.30
2018-02-12T08:53:04.944Z,99778.35
2018-02-12T08:55:34.180Z,99789.50
2018-02-12T08:58:04.250Z,99786.45
2018-02-12T09:00:33.638Z,99793.44
2018-02-12T09:03:02.932Z,99796.91
2018-02-12T09:05:32.121Z,99800.75
2018-02-12T09:08:01.416Z,99801.96
2018-02-12T09:10:30.661Z,99806.34
2018-02-12T09:12:59.881Z,99809.83
2018-02-12T09:15:29.086Z,99808.09
2018-02-12T09:18:00.070Z,99806.88
2018-02-12T09:20:29.317Z,99813.16
2018-02-12T09:22:59.283Z,99815.80
2018-02-12T09:25:28.543Z,99820.84
2018-02-12T09:27:58.558Z,99828.58
2018-02-12T09:30:28.532Z,99827.13
2018-02-12T09:32:58.515Z,99830.98
2018-02-12T09:35:27.764Z,99833.80
2018-02-12T09:37:56.987Z,99837.82
2018-02-12T09:40:26.214Z,99835.80
2018-02-12T09:42:55.447Z,99843.00
2018-02-12T09:45:24.729Z,99846.20
2018-02-12T09:47:53.967Z,99848.58
2018-02-12T09:50:23.988Z,99853.83
2018-02-12T09:52:54.011Z,99860.75
2018-02-12T09:55:23.988Z,99862.58
2018-02-12T09:57:53.415Z,99869.69
2018-02-12T10:00:23.407Z,99870.06
2018-02-12T10:02:52.629Z,99873.28
2018-02-12T10:05:21.848Z,99880.37
2018-02-12T10:07:51.076Z,99875.00
2018-02-12T10:10:20.301Z,99876.81
2018-02-12T10:12:49.545Z,99888.03
2018-02-12T10:15:18.755Z,99884.16
2018-02-12T10:17:47.978Z,99886.17
2018-02-12T10:20:17.211Z,99898.36
2018-02-12T10:22:46.397Z,99893.77
2018-02-12T10:25:15.593Z,99897.60
2018-02-12T10:27:45.588Z,99906.56
2018-02-12T10:30:14.827Z,99916.47
2018-02-12T10:32:44.001Z,99918.16
2018-02-12T10:35:13.204Z,99919.11
2018-02-12T10:37:43.187Z,99920.56
2018-02-12T10:40:12.642Z,99932.75
2018-02-12T10:42:42.634Z,99923.13
2018-02-12T10:45:13.478Z,99927.16
2018-02-12T10:47:42.706Z,99926.19
2018-02-12T10:50:12.685Z,99932.75
2018-02-12T10:52:41.918Z,99933.92
2018-02-12T10:55:11.534Z,99934.41
2018-02-12T10:57:40.806Z,99944.40
2018-02-12T11:00:10.032Z,99934.72
2018-02-12T11:02:39.328Z,99939.66
2018-02-12T11:05:08.531Z,99943.36
2018-02-12T11:07:37.766Z,99942.42
2018-02-12T11:10:06.993Z,99948.49
2018-02-12T11:12:37.010Z,99948.64
2018-02-12T11:15:07.065Z,99947.50
2018-02-12T11:17:37.019Z,99955.95
2018-02-12T11:20:06.343Z,99950.16
2018-02-12T11:22:35.694Z,99953.17
2018-02-12T11:25:04.963Z,99949.37
2018-02-12T11:27:34.278Z,99961.89
2018-02-12T11:30:03.524Z,99961.16
2018-02-12T11:32:32.761Z,99949.84
2018-02-12T11:35:02.739Z,99956.80
2018-02-12T11:37:31.986Z,99951.16
2018-02-12T11:40:01.394Z,99960.71
2018-02-12T11:42:30.618Z,99956.03
2018-02-12T11:44:59.830Z,99954.07
2018-02-12T11:47:29.877Z,99958.52
2018-02-12T11:49:59.870Z,99953.38
2018-02-12T11:52:30.567Z,99953.00
2018-02-12T11:54:59.826Z,99953.97
2018-02-12T11:57:29.830Z,99953.05
2018-02-12T11:59:59.101Z,99954.84
2018-02-12T12:02:28.386Z,99958.19
2018-02-12T12:04:57.645Z,99958.64
2018-02-12T12:07:27.614Z,99952.40
2018-02-12T12:09:56.844Z,99952.33
2018-02-12T12:12:26.040Z,99955.05
2018-02-12T12:14:56.011Z,99956.02
2018-02-12T12:17:25.486Z,99948.66
2018-02-12T12:19:54.698Z,99952.98
2018-02-12T12:22:23.973Z,99956.84
2018-02-12T12:24:53.439Z,99959.42
2018-02-12T12:27:22.626Z,99964.29
2018-02-12T12:29:51.882Z,99959.76
2018-02-12T12:32:21.097Z,99970.13
2018-02-12T12:34:50.987Z,99968.39
2018-02-12T12:37:20.972Z,99969.13
2018-02-12T12:39:50.316Z,99967.86
2018-02-12T12:42:19.594Z,99975.29
2018-02-12T12:44:48.774Z,99978.42
2018-02-12T12:47:17.932Z,99965.58
2018-02-12T12:49:47.182Z,99955.94
2018-02-12T12:52:17.314Z,99965.39
2018-02-12T12:54:46.543Z,99959.50
2018-02-12T12:57:15.749Z,99963.26
2018-02-12T12:59:44.974Z,99963.26
2018-02-12T13:02:14.951Z,99958.73
2018-02-12T13:04:44.138Z,99959.30
2018-02-12T13:07:13.345Z,99957.13
2018-02-12T13:09:42.583Z,99951.30
2018-02-12T13:12:11.820Z,99970.79
2018-02-12T13:14:41.043Z,99975.52
2018-02-12T13:17:10.240Z,99970.54
2018-02-12T13:19:39.499Z,99970.34
2018-02-12T13:22:08.721Z,99973.19
2018-02-12T13:24:38.077Z,99962.17
2018-02-12T13:27:07.423Z,99971.48
2018-02-12T13:29:36.619Z,99968.80
2018-02-12T13:32:05.862Z,99966.30
2018-02-12T13:34:35.106Z,99970.79
2018-02-12T13:37:04.489Z,99967.11
2018-02-12T13:39:34.482Z,99967.41
2018-02-12T13:42:04.505Z,99969.74
2018-02-12T13:44:33.718Z,99966.56
2018-02-12T13:47:03.689Z,99966.30
2018-02-12T13:49:32.958Z,99965.14
2018-02-12T13:52:02.189Z,99970.83
2018-02-12T13:54:31.391Z,99979.15
2018-02-12T13:57:00.996Z,99975.52
2018-02-12T13:59:30.255Z,99978.77
2018-02-12T14:02:00.262Z,99980.05
2018-02-12T14:04:29.622Z,99976.52
2018-02-12T14:06:59.841Z,99977.13
2018-02-12T14:09:29.058Z,99978.52
2018-02-12T14:11:59.160Z,99979.31
2018-02-12T14:14:29.878Z,99982.99
2018-02-12T14:16:59.079Z,99974.33
2018-02-12T14:19:28.303Z,99976.22
2018-02-12T14:21:58.292Z,99980.80
2018-02-12T14:24:27.533Z,99976.47
2018-02-12T14:26:56.734Z,99982.80
2018-02-12T14:29:25.931Z,99977.42
2018-02-12T14:31:55.937Z,99984.91
2018-02-12T14:34:25.158Z,99985.39
2018-02-12T14:36:54.363Z,99989.88
2018-02-12T14:39:23.629Z,99985.79
2018-02-12T14:41:53.828Z,99986.98
2018-02-12T14:44:23.166Z,99994.52
2018-02-12T14:46:52.410Z,99983.34
2018-02-12T14:49:21.624Z,99990.73
2018-02-12T14:51:52.519Z,99992.38
2018-02-12T14:54:21.723Z,99990.57
2018-02-12T14:56:51.110Z,99989.03
2018-02-12T14:59:20.285Z,99988.78
2018-02-12T15:01:49.545Z,99990.48
2018-02-12T15:04:18.759Z,99983.98
2018-02-12T15:06:48.000Z,99990.12
2018-02-12T15:09:17.282Z,99991.07
2018-02-12T15:11:46.535Z,99993.30
2018-02-12T15:14:15.750Z,100000.34
2018-02-12T15:16:44.973Z,100004.23
2018-02-12T15:19:15.017Z,100002.28
2018-02-12T15:21:44.237Z,100002.74
2018-02-12T15:24:13.487Z,100003.24
2018-02-12T15:26:43.701Z,100004.69
2018-02-12T15:29:13.713Z,99999.66
2018-02-12T15:31:43.659Z,100001.65
2018-02-12T15:34:13.085Z,100005.78
2018-02-12T15:36:42.358Z,100016.25
2018-02-12T15:39:11.600Z,100015.81
2018-02-12T15:41:40.792Z,100022.27
2018-02-12T15:44:10.015Z,100025.06
2018-02-12T15:46:39.266Z,100018.63
2018-02-12T15:49:08.517Z,100027.00
2018-02-12T15:51:37.706Z,100022.97
2018-02-12T15:54:07.913Z,100032.54
2018-02-12T15:56:37.179Z,100031.89
2018-02-12T15:59:06.402Z,100041.75
2018-02-12T16:01:35.684Z,100043.28
2018-02-12T16:04:05.063Z,100043.53
2018-02-12T16:06:34.330Z,100046.81
2018-02-12T16:09:04.335Z,100050.09
2018-02-12T16:11:34.404Z,100054.02
2018-02-12T16:14:03.644Z,100057.52
2018-02-12T16:16:32.888Z,100056.56
2018-02-12T16:19:02.109Z,100058.17
2018-02-12T16:21:31.362Z,100063.22
2018-02-12T16:24:01.661Z,100058.28
2018-02-12T16:26:30.918Z,100068.64
2018-02-12T16:29:00.134Z,100070.09
2018-02-12T16:31:29.416Z,100070.34
2018-02-12T16:33:58.626Z,100072.89
2018-02-12T16:36:27.872Z,100074.78
2018-02-12T16:38:57.115Z,100077.00
2018-02-12T16:41:26.341Z,100084.85
2018-02-12T16:43:55.675Z,100080.42
2018-02-12T16:46:25.661Z,100082.60
2018-02-12T16:48:55.270Z,100078.89
2018-02-12T16:51:24.524Z,100090.77
2018-02-12T16:53:53.788Z,100086.00
2018-02-12T16:56:23.823Z,100090.47
2018-02-12T16:58:53.176Z,100088.52
2018-02-12T17:01:22.481Z,100095.13
2018-02-12T17:03:51.902Z,100097.76
2018-02-12T17:06:21.878Z,100099.61
2018-02-12T17:08:51.106Z,100112.80
2018-02-12T17:11:21.172Z,100112.63
2018-02-12T17:13:50.388Z,100107.02
2018-02-12T17:16:19.612Z,100111.90
2018-02-12T17:18:49.584Z,100114.09
2018-02-12T17:21:18.830Z,100107.55
2018-02-12T17:23:48.882Z,100109.14
2018-02-12T17:26:18.133Z,100114.66
2018-02-12T17:28:47.330Z,100116.55
2018-02-12T17:31:16.554Z,100114.16
2018-02-12T17:33:46.555Z,100117.78
2018-02-12T17:36:15.815Z,100119.83
2018-02-12T17:38:45.052Z,100113.02
2018-02-12T17:41:14.304Z,100124.97
2018-02-12T17:43:43.548Z,100128.77
2018-02-12T17:46:12.837Z,100130.23
2018-02-12T17:48:42.080Z,100133.48
2018-02-12T17:51:11.283Z,100141.69
2018-02-12T17:53:40.530Z,100137.66
2018-02-12T17:56:10.563Z,100138.73
2018-02-12T17:58:40.677Z,100143.04
2018-02-12T18:01:09.899Z,100140.48
2018-02-12T18:03:40.030Z,100141.83
2018-02-12T18:06:09.256Z,100150.04
2018-02-12T18:08:38.562Z,100148.16
2018-02-12T18:11:07.815Z,100145.09
2018-02-12T18:13:37.837Z,100158.66
2018-02-12T18:16:07.078Z,100154.09
2018-02-12T18:18:36.367Z,100154.34
2018-02-12T18:21:05.605Z,100159.97
2018-02-12T18:23:34.880Z,100154.03
2018-02-12T18:26:04.159Z,100155.50
2018-02-12T18:28:33.380Z,100157.55
2018-02-12T18:31:04.253Z,100162.63
2018-02-12T18:33:33.502Z,100161.01
2018-02-12T18:36:02.793Z,100161.30
2018-02-12T18:38:32.003Z,100164.28
2018-02-12T18:41:01.258Z,100161.08
2018-02-12T18:43:31.257Z,100166.58
2018-02-12T18:46:01.351Z,100167.94
2018-02-12T18:48:30.593Z,100166.45
2018-02-12T18:51:00.531Z,100168.61
2018-02-12T18:53:29.777Z,100168.86
2018-02-12T18:55:59.755Z,100172.37
2018-02-12T18:58:29.010Z,100173.98
2018-02-12T19:00:59.030Z,100170.39
2018-02-12T19:03:28.253Z,100178.28
2018-02-12T19:05:57.514Z,100188.36
2018-02-12T19:08:26.784Z,100179.22
2018-02-12T19:10:56.035Z,100180.58
2018-02-12T19:13:25.280Z,100183.55
2018-02-12T19:15:54.523Z,100187.82
2018-02-12T19:18:24.527Z,100176.72
2018-02-12T19:20:54.600Z,100180.86
2018-02-12T19:23:23.859Z,100188.64
2018-02-12T19:25:53.058Z,100187.42
2018-02-12T19:28:22.327Z,100193.85
2018-02-12T19:30:52.344Z,100191.47
2018-02-12T19:33:23.264Z,100196.53
2018-02-12T19:35:52.496Z,100194.26
2018-02-12T19:38:24.797Z,100197.76
2018-02-12T19:40:54.047Z,100194.81
2018-02-12T19:43:24.091Z,100194.41
2018-02-12T19:45:54.076Z,100198.57
2018-02-12T19:48:23.352Z,100200.45
2018-02-12T19:50:52.643Z,100200.83
2018-02-12T19:53:21.879Z,100203.23
2018-02-12T19:55:51.890Z,100206.86
2018-02-12T19:58:21.865Z,100201.62
2018-02-12T20:00:51.142Z,100204.45
2018-02-12T20:03:20.356Z,100207.94
2018-02-12T20:05:49.624Z,100208.89
2018-02-12T20:08:18.905Z,100199.61
2018-02-12T20:10:48.184Z,100197.33
2018-02-12T20:13:18.965Z,100205.53
2018-02-12T20:15:48.209Z,100203.77
2018-02-12T20:18:18.309Z,100204.05
2018-02-12T20:20:47.547Z,100208.33
2018-02-12T20:23:17.699Z,100204.30
2018-02-12T20:25:46.967Z,100210.73
2018-02-12T20:28:17.013Z,100211.55
2018-02-12T20:30:46.271Z,100208.73
2018-02-12T20:33:15.527Z,100208.19
2018-02-12T20:35:44.788Z,100212.20
2018-02-12T20:38:14.806Z,100217.97
2018-02-12T20:40:44.885Z,100213.01
2018-02-12T20:43:14.277Z,100215.70
2018-02-12T20:45:43.539Z,100218.12
2018-02-12T20:48:12.761Z,100219.72
2018-02-12T20:50:42.015Z,100219.31
2018-02-12T20:53:12.020Z,100221.33
2018-02-12T20:55:42.043Z,100231.88
2018-02-12T20:58:12.024Z,100217.44
2018-02-12T21:00:41.256Z,100218.88
2018-02-12T21:03:10.484Z,100219.17
2018-02-12T21:05:39.749Z,100222.91
2018-02-12T21:08:09.092Z,100220.77
2018-02-12T21:10:38.489Z,100220.48
2018-02-12T21:13:07.749Z,100215.80
2018-02-12T21:15:36.975Z,100221.44
2018-02-12T21:18:06.964Z,100220.63
2018-02-12T21:20:36.979Z,100223.05
2018-02-12T21:23:06.197Z,100227.87
2018-02-12T21:25:36.183Z,100220.07
2018-02-12T21:28:06.221Z,100223.83
2018-02-12T21:30:35.551Z,100219.81
2018-02-12T21:33:04.793Z,100221.81
2018-02-12T21:35:34.039Z,100220.74
2018-02-12T21:38:03.289Z,100217.93
2018-02-12T21:40:33.460Z,100225.42
2018-02-12T21:43:03.419Z,100222.33
2018-02-12T21:45:32.693Z,100223.94
2018-02-12T21:48:02.038Z,100222.87
2018-02-12T21:50:31.253Z,100222.34
2018-02-12T21:53:01.246Z,100229.17
2018-02-12T21:55:30.507Z,100227.53
2018-02-12T21:57:59.726Z,100226.47
2018-02-12T22:00:28.961Z,100228.34
2018-02-12T22:02:59.134Z,100219.66
2018-02-12T22:05:28.396Z,100227.67
2018-02-12T22:07:57.642Z,100223.52
2018-02-12T22:10:26.882Z,100223.52
2018-02-12T22:12:56.111Z,100222.69
2018-02-12T22:15:25.472Z,100226.98
2018-02-12T22:17:54.696Z,100224.17
2018-02-12T22:20:23.925Z,100220.66
2018-02-12T22:22:53.140Z,100217.85
2018-02-12T22:25:22.365Z,100215.45
2018-02-12T22:27:52.415Z,100219.03
2018-02-12T22:30:21.631Z,100217.00
2018-02-12T22:32:50.856Z,100217.67
2018-02-12T22:35:20.098Z,100221.38
2018-02-12T22:37:49.590Z,100209.20
2018-02-12T22:40:19.592Z,100222.86
2018-02-12T22:42:49.617Z,100220.98
2018-02-12T22:45:19.618Z,100212.92
2018-02-12T22:47:49.645Z,100220.15
2018-02-12T22:50:19.608Z,100223.36
2018-02-12T22:52:48.826Z,100217.73
2018-02-12T22:55:18.104Z,100223.46
2018-02-12T22:57:47.355Z,100218.91
2018-02-12T23:00:16.823Z,100214.49
2018-02-12T23:02:46.402Z,100211.52
2018-02-12T23:05:16.426Z,100214.46
2018-02-12T23:07:45.657Z,100210.58
2018-02-12T23:10:14.884Z,100210.05
2018-02-12T23:12:45.010Z,100210.58
2018-02-12T23:15:20.581Z,100207.10
2018-02-12T23:17:49.866Z,100203.63
2018-02-12T23:20:19.086Z,100209.84
2018-02-12T23:22:48.284Z,100214.16
2018-02-12T23:25:17.576Z,100209.58
2018-02-12T23:27:46.792Z,100212.11
2018-02-12T23:30:16.953Z,100209.58
2018-02-12T23:32:46.151Z,100201.72
2018-02-12T23:35:16.139Z,100201.05
2018-02-12T23:37:46.135Z,100207.03
2018-02-12T23:40:15.450Z,100199.80
2018-02-12T23:42:44.757Z,100197.00
2018-02-12T23:45:14.017Z,100208.64
2018-02-12T23:47:43.258Z,100208.64
2018-02-12T23:50:14.197Z,100204.45
2018-02-12T23:52:43.405Z,100207.53
2018-02-12T23:55:13.406Z,100210.60
2018-02-12T23:57:44.150Z,100202.27
